Time,TemperatureF,DewpointF,PressureIn,WindDirection,WindDirectionDegrees,WindSpeedMPH,WindSpeedGustMPH,Humidity,HourlyPrecipIn,Conditions,Clouds,dailyrainin,SolarRadiationWatts/m^2,SoftwareType,DateUTC
2013-09-18 00:22:00,67.0,41.0,29.83,West,275,22.0,37.0,39,0.00,,,0.00,0.000000,,2013-09-18 07:22:00,
2013-09-18 00:32:00,67.0,41.0,29.83,West,275,22.0,37.0,39,0.00,,,0.00,0.000000,,2013-09-18 07:32:00,
2013-09-18 00:42:00,67.0,41.0,29.83,West,275,22.0,37.0,39,0.00,,,0.00,0.000000,,2013-09-18 07:42:00,
2013-09-18 00:52:00,67.0,41.0,29.83,West,275,22.0,37.0,39,0.00,,,0.00,0.000000,,2013-09-18 07:52:00,
2013-09-18 01:22:00,64.0,39.0,29.82,West,280,27.0,37.0,39,0.00,,,0.00,0.000000,,2013-09-18 08:22:00,
2013-09-18 01:32:00,64.0,39.0,29.82,West,280,27.0,37.0,39,0.00,,,0.00,0.000000,,2013-09-18 08:32:00,
2013-09-18 01:42:00,64.0,39.0,29.82,West,280,27.0,37.0,39,0.00,,,0.00,0.000000,,2013-09-18 08:42:00,
2013-09-18 01:52:00,64.0,39.0,29.82,West,280,27.0,37.0,39,0.00,,,0.00,0.000000,,2013-09-18 08:52:00,
2013-09-18 02:22:00,62.0,39.0,29.82,West,274,22.0,37.0,43,0.00,,,0.00,0.000000,,2013-09-18 09:22:00,
2013-09-18 02:33:00,62.0,39.0,29.82,West,274,22.0,37.0,43,0.00,,,0.00,0.000000,,2013-09-18 09:33:00,
2013-09-18 02:43:00,62.0,39.0,29.82,West,274,22.0,37.0,43,0.00,,,0.00,0.000000,,2013-09-18 09:43:00,
2013-09-18 02:53:00,62.0,39.0,29.82,West,274,22.0,37.0,43,0.00,,,0.00,0.000000,,2013-09-18 09:53:00,
2013-09-18 03:23:00,63.0,41.0,29.81,West,275,23.0,35.0,44,0.00,,,0.00,0.000000,,2013-09-18 10:23:00,
2013-09-18 03:33:00,63.0,41.0,29.81,West,275,23.0,35.0,44,0.00,,,0.00,0.000000,,2013-09-18 10:33:00,
2013-09-18 03:42:00,63.0,41.0,29.81,West,275,23.0,35.0,44,0.00,,,0.00,0.000000,,2013-09-18 10:42:00,
2013-09-18 03:53:00,63.0,41.0,29.81,West,275,23.0,35.0,44,0.00,,,0.00,0.000000,,2013-09-18 10:53:00,
2013-09-18 04:22:00,62.0,39.0,29.79,WNW,282,19.0,35.0,42,0.00,,,0.00,0.000000,,2013-09-18 11:22:00,
2013-09-18 04:33:00,62.0,39.0,29.79,WNW,282,19.0,35.0,42,0.00,,,0.00,0.000000,,2013-09-18 11:33:00,
2013-09-18 04:42:00,62.0,39.0,29.79,WNW,282,19.0,35.0,42,0.00,,,0.00,0.000000,,2013-09-18 11:42:00,
2013-09-18 04:52:00,62.0,39.0,29.79,WNW,282,19.0,35.0,42,0.00,,,0.00,0.000000,,2013-09-18 11:52:00,
2013-09-18 05:22:00,63.0,40.0,29.79,West,275,17.0,30.0,43,0.00,,,0.00,0.000000,,2013-09-18 12:22:00,
2013-09-18 05:32:00,63.0,40.0,29.79,West,275,17.0,30.0,43,0.00,,,0.00,0.000000,,2013-09-18 12:32:00,
2013-09-18 05:42:00,63.0,40.0,29.79,West,275,17.0,30.0,43,0.00,,,0.00,0.000000,,2013-09-18 12:42:00,
2013-09-18 05:52:00,63.0,40.0,29.79,West,275,17.0,30.0,43,0.00,,,0.00,0.000000,,2013-09-18 12:52:00,
2013-09-18 21:25:00,71.0,36.0,29.84,WNW,283,18.0,26.0,28,0.00,,,0.00,0.000000,,2013-09-19 04:25:00,
2013-09-18 21:34:00,71.0,36.0,29.84,WNW,283,18.0,26.0,28,0.00,,,0.00,0.000000,,2013-09-19 04:34:00,
2013-09-18 21:43:00,71.0,36.0,29.84,WNW,283,18.0,26.0,28,0.00,,,0.00,0.000000,,2013-09-19 04:43:00,
2013-09-18 21:54:00,71.0,36.0,29.84,WNW,283,18.0,26.0,28,0.00,,,0.00,0.000000,,2013-09-19 04:54:00,
2013-09-18 22:23:00,69.0,35.0,29.85,WNW,283,21.0,29.0,28,0.00,,,0.00,0.000000,,2013-09-19 05:23:00,
2013-09-18 22:34:00,69.0,35.0,29.85,WNW,283,21.0,29.0,28,0.00,,,0.00,0.000000,,2013-09-19 05:34:00,
2013-09-18 23:22:00,70.0,36.0,29.85,West,278,20.0,27.0,29,0.00,,,-99.99,0.000000,,2013-09-19 06:22:00,
2013-09-18 23:32:00,70.0,36.0,29.85,West,278,20.0,27.0,29,0.00,,,-99.99,0.000000,,2013-09-19 06:32:00,
2013-09-18 23:43:00,70.0,36.0,29.85,West,278,20.0,27.0,29,0.00,,,-99.99,0.000000,,2013-09-19 06:43:00,
2013-09-18 23:52:00,70.0,36.0,29.85,West,278,20.0,27.0,29,0.00,,,-99.99,0.000000,,2013-09-19 06:52:00,